createdAt,value
2017-08-29T00:00:35.139Z,12.23
2017-08-29T00:03:08.009Z,14.43
2017-08-29T00:05:39.635Z,16.07
2017-08-29T00:08:10.934Z,14.70
2017-08-29T00:10:42.255Z,18.07
2017-08-29T00:13:13.831Z,14.10
2017-08-29T00:15:45.461Z,15.90
2017-08-29T00:18:16.740Z,17.13
2017-08-29T00:20:48.069Z,14.50
2017-08-29T00:23:19.743Z,24.67
2017-08-29T00:25:51.051Z,17.77
2017-08-29T00:28:22.348Z,15.70
2017-08-29T00:30:53.640Z,22.33
2017-08-29T00:33:24.956Z,24.60
2017-08-29T00:35:56.840Z,14.20
2017-08-29T00:38:28.141Z,19.70
2017-08-29T00:40:59.447Z,19.23
2017-08-29T00:43:31.117Z,13.83
2017-08-29T00:46:03.678Z,13.90
2017-08-29T00:48:34.980Z,13.40
2017-08-29T00:51:06.605Z,13.40
2017-08-29T00:53:38.112Z,17.23
2017-08-29T00:56:10.729Z,13.67
2017-08-29T00:58:42.088Z,23.17
2017-08-29T01:01:13.419Z,17.27
2017-08-29T01:03:45.014Z,18.77
2017-08-29T01:06:16.602Z,15.90
2017-08-29T01:08:47.905Z,16.03
2017-08-29T01:11:19.319Z,14.90
2017-08-29T01:13:50.627Z,17.20
2017-08-29T01:16:22.392Z,17.40
2017-08-29T01:18:53.722Z,19.90
2017-08-29T01:21:25.319Z,22.50
2017-08-29T01:23:56.718Z,19.43
2017-08-29T01:26:28.272Z,19.63
2017-08-29T01:28:59.911Z,19.87
2017-08-29T01:31:31.266Z,18.17
2017-08-29T01:34:03.403Z,20.40
2017-08-29T01:36:35.405Z,23.10
2017-08-29T01:39:08.020Z,18.50
2017-08-29T01:41:39.600Z,22.33
2017-08-29T01:44:11.240Z,22.93
2017-08-29T01:46:42.741Z,19.13
2017-08-29T01:49:14.080Z,21.17
2017-08-29T01:51:45.489Z,19.17
2017-08-29T01:54:17.615Z,18.17
2017-08-29T01:56:49.345Z,20.50
2017-08-29T01:59:20.692Z,22.67
2017-08-29T02:01:52.074Z,16.07
2017-08-29T02:04:23.687Z,15.30
2017-08-29T02:06:55.092Z,15.37
2017-08-29T02:09:26.546Z,14.93
2017-08-29T02:11:58.507Z,14.57
2017-08-29T02:14:30.015Z,24.80
2017-08-29T02:17:01.527Z,16.20
2017-08-29T02:19:33.114Z,21.60
2017-08-29T02:22:04.968Z,15.13
2017-08-29T02:24:36.303Z,17.20
2017-08-29T02:27:08.880Z,20.90
2017-08-29T02:29:40.212Z,18.27
2017-08-29T02:32:11.821Z,17.00
2017-08-29T02:34:43.121Z,19.50
2017-08-29T02:37:15.688Z,16.50
2017-08-29T02:39:47.436Z,17.23
2017-08-29T02:42:18.761Z,19.53
2017-08-29T02:44:50.070Z,18.10
2017-08-29T02:47:21.663Z,19.50
2017-08-29T02:49:53.029Z,21.97
2017-08-29T02:52:24.339Z,19.07
2017-08-29T02:54:56.086Z,18.30
2017-08-29T02:57:27.414Z,17.33
2017-08-29T02:59:58.775Z,20.60
2017-08-29T03:02:30.398Z,19.50
2017-08-29T03:05:02.201Z,18.30
2017-08-29T03:07:34.096Z,17.33
2017-08-29T03:10:06.048Z,17.13
2017-08-29T03:12:37.349Z,19.83
2017-08-29T03:15:09.810Z,19.63
2017-08-29T03:17:41.127Z,21.23
2017-08-29T03:20:12.452Z,25.53
2017-08-29T03:22:44.141Z,19.80
2017-08-29T03:25:15.461Z,20.80
2017-08-29T03:27:47.032Z,19.23
2017-08-29T03:30:18.353Z,20.33
2017-08-29T03:32:49.663Z,19.03
2017-08-29T03:38:23.178Z,20.20
2017-08-29T03:40:54.813Z,23.57
2017-08-29T03:43:26.106Z,18.47
2017-08-29T03:45:57.673Z,24.03
2017-08-29T03:48:28.998Z,22.73
2017-08-29T03:51:00.459Z,22.83
2017-08-29T03:53:32.127Z,26.87
2017-08-29T03:56:05.812Z,26.10
2017-08-29T03:58:37.152Z,22.83
2017-08-29T04:01:09.840Z,23.90
2017-08-29T04:03:41.169Z,22.60
2017-08-29T04:06:12.868Z,22.83
2017-08-29T04:08:44.582Z,27.37
2017-08-29T04:11:15.909Z,24.93
2017-08-29T04:13:47.596Z,28.40
2017-08-29T04:16:18.926Z,33.70
2017-08-29T04:18:50.503Z,19.77
2017-08-29T04:21:21.831Z,27.60
2017-08-29T04:23:53.150Z,24.63
2017-08-29T04:26:24.788Z,26.20
2017-08-29T04:28:56.130Z,21.10
2017-08-29T04:31:27.441Z,26.90
2017-08-29T04:33:59.087Z,33.50
2017-08-29T04:36:30.410Z,25.23
2017-08-29T04:39:02.714Z,25.43
2017-08-29T04:41:34.012Z,29.30
2017-08-29T04:44:06.381Z,22.33
2017-08-29T04:46:38.219Z,25.50
2017-08-29T04:49:09.594Z,23.57
2017-08-29T04:51:41.131Z,21.40
2017-08-29T04:54:12.744Z,23.27
2017-08-29T04:56:44.185Z,27.23
2017-08-29T04:59:15.790Z,25.10
2017-08-29T05:01:47.163Z,30.03
2017-08-29T05:04:18.548Z,28.73
2017-08-29T05:06:50.309Z,23.97
2017-08-29T05:09:22.030Z,27.37
2017-08-29T05:11:53.364Z,22.70
2017-08-29T05:14:25.012Z,20.37
2017-08-29T05:16:56.353Z,25.23
2017-08-29T05:19:27.964Z,21.20
2017-08-29T05:21:59.301Z,20.93
2017-08-29T05:24:30.662Z,20.77
2017-08-29T05:27:02.472Z,30.00
2017-08-29T05:29:33.808Z,27.67
2017-08-29T05:32:07.512Z,23.03
2017-08-29T05:34:39.239Z,25.10
2017-08-29T05:37:10.803Z,23.77
2017-08-29T05:39:42.442Z,29.97
2017-08-29T05:42:13.826Z,43.37
2017-08-29T05:44:45.142Z,45.33
2017-08-29T05:47:16.817Z,39.97
2017-08-29T05:49:48.177Z,27.97
2017-08-29T05:52:19.483Z,27.20
2017-08-29T05:54:51.091Z,26.73
2017-08-29T05:57:22.427Z,32.23
2017-08-29T05:59:53.729Z,28.60
2017-08-29T06:02:25.023Z,25.00
2017-08-29T06:04:56.321Z,26.77
2017-08-29T06:07:27.949Z,26.80
2017-08-29T06:09:59.559Z,29.63
2017-08-29T06:12:30.838Z,16.50
2017-08-29T06:15:02.993Z,41.07
2017-08-29T06:17:35.199Z,18.60
2017-08-29T06:20:08.782Z,16.13
2017-08-29T06:22:40.137Z,21.50
2017-08-29T06:25:11.459Z,16.33
2017-08-29T06:27:43.077Z,18.20
2017-08-29T06:30:14.443Z,15.60
2017-08-29T06:32:45.796Z,23.33
2017-08-29T06:35:17.440Z,20.70
2017-08-29T06:37:49.709Z,22.20
2017-08-29T06:40:21.324Z,22.43
2017-08-29T06:42:52.663Z,20.17
2017-08-29T06:45:24.024Z,17.37
2017-08-29T06:47:55.635Z,18.37
2017-08-29T06:50:27.034Z,20.70
2017-08-29T06:52:58.365Z,25.73
2017-08-29T06:55:29.972Z,22.10
2017-08-29T06:58:01.683Z,18.77
2017-08-29T07:00:33.226Z,20.30
2017-08-29T07:03:05.112Z,24.50
2017-08-29T07:05:36.584Z,29.90
2017-08-29T07:08:09.350Z,31.47
2017-08-29T07:10:41.181Z,38.60
2017-08-29T07:13:12.589Z,28.20
2017-08-29T07:15:44.316Z,19.30
2017-08-29T07:18:15.672Z,21.13
2017-08-29T07:20:47.001Z,20.20
2017-08-29T07:23:18.318Z,22.63
2017-08-29T07:25:49.946Z,25.00
2017-08-29T07:28:21.351Z,28.10
2017-08-29T07:30:52.671Z,27.17
2017-08-29T07:33:24.024Z,25.00
2017-08-29T07:35:55.416Z,23.20
2017-08-29T07:38:27.322Z,25.93
2017-08-29T07:40:59.044Z,34.70
2017-08-29T07:43:30.940Z,42.97
2017-08-29T07:46:03.397Z,29.77
2017-08-29T07:48:35.075Z,30.73
2017-08-29T07:51:08.042Z,35.43
2017-08-29T07:53:39.504Z,28.63
2017-08-29T07:58:45.604Z,25.77
2017-08-29T08:03:45.314Z,25.13
2017-08-29T08:06:16.653Z,22.73
2017-08-29T08:08:48.086Z,32.13
2017-08-29T08:11:19.916Z,22.90
2017-08-29T08:13:51.399Z,26.60
2017-08-29T08:16:23.435Z,19.93
2017-08-29T08:18:54.939Z,25.63
2017-08-29T08:21:26.297Z,25.63
2017-08-29T08:23:57.924Z,19.83
2017-08-29T08:26:29.670Z,23.03
2017-08-29T08:29:01.185Z,21.37
2017-08-29T08:31:32.926Z,28.47
2017-08-29T08:34:07.636Z,29.10
2017-08-29T08:36:39.429Z,27.10
2017-08-29T08:39:10.985Z,19.60
2017-08-29T08:41:42.664Z,28.27
2017-08-29T08:44:14.280Z,22.80
2017-08-29T08:46:45.596Z,16.10
2017-08-29T08:49:17.192Z,19.00
2017-08-29T08:51:48.519Z,15.40
2017-08-29T08:54:19.856Z,24.03
2017-08-29T08:56:51.564Z,16.20
2017-08-29T08:59:22.987Z,14.67
2017-08-29T09:01:54.344Z,17.00
2017-08-29T09:04:25.987Z,16.03
2017-08-29T09:06:57.291Z,12.10
2017-08-29T09:09:28.855Z,25.27
2017-08-29T09:12:00.442Z,17.13
2017-08-29T09:14:31.768Z,19.80
2017-08-29T09:17:03.893Z,15.43
2017-08-29T09:19:35.265Z,17.40
2017-08-29T09:22:08.063Z,19.00
2017-08-29T09:24:39.652Z,20.73
2017-08-29T09:27:11.649Z,18.60
2017-08-29T09:29:42.951Z,12.30
2017-08-29T09:32:14.251Z,11.93
2017-08-29T09:34:45.776Z,20.80
2017-08-29T09:37:17.573Z,16.23
2017-08-29T09:39:48.901Z,12.37
2017-08-29T09:42:20.568Z,11.33
2017-08-29T09:44:52.359Z,10.73
2017-08-29T09:47:23.669Z,12.27
2017-08-29T09:49:54.972Z,10.50
2017-08-29T09:52:26.289Z,9.07
2017-08-29T09:54:57.620Z,9.17
2017-08-29T09:57:29.522Z,13.50
2017-08-29T10:00:00.931Z,11.23
2017-08-29T10:02:32.244Z,13.80
2017-08-29T10:05:05.142Z,8.90
2017-08-29T10:07:36.693Z,10.70
2017-08-29T10:10:09.287Z,9.27
2017-08-29T10:12:40.925Z,8.30
2017-08-29T10:15:12.195Z,8.40
2017-08-29T10:17:45.587Z,8.37
2017-08-29T10:20:16.891Z,7.73
2017-08-29T10:22:48.384Z,11.43
2017-08-29T10:25:19.968Z,7.87
2017-08-29T10:27:51.783Z,8.53
2017-08-29T10:30:23.152Z,8.20
2017-08-29T10:32:54.920Z,13.50
2017-08-29T10:35:26.342Z,8.83
2017-08-29T10:37:57.948Z,9.60
2017-08-29T10:40:29.518Z,14.00
2017-08-29T10:43:01.409Z,7.90
2017-08-29T10:45:33.440Z,7.37
2017-08-29T10:48:06.148Z,14.67
2017-08-29T10:50:37.780Z,8.23
2017-08-29T10:53:10.341Z,10.93
2017-08-29T10:55:41.940Z,7.90
2017-08-29T10:58:14.137Z,10.30
2017-08-29T11:00:45.811Z,7.90
2017-08-29T11:03:17.163Z,7.70
2017-08-29T11:05:49.073Z,10.50
2017-08-29T11:08:20.646Z,8.33
2017-08-29T11:10:52.581Z,10.97
2017-08-29T11:13:24.908Z,12.17
2017-08-29T11:15:56.520Z,6.97
2017-08-29T11:18:28.294Z,9.60
2017-08-29T11:20:59.828Z,7.40
2017-08-29T11:23:31.887Z,12.33
2017-08-29T11:26:06.800Z,8.80
2017-08-29T11:28:38.302Z,7.20
2017-08-29T11:31:11.058Z,8.03
2017-08-29T11:33:42.756Z,10.33
2017-08-29T11:36:14.742Z,8.70
2017-08-29T11:38:46.465Z,13.30
2017-08-29T11:41:18.066Z,7.27
2017-08-29T11:43:50.241Z,7.73
2017-08-29T11:46:21.661Z,11.70
2017-08-29T11:48:53.579Z,7.97
2017-08-29T11:51:25.059Z,9.37
2017-08-29T11:53:56.617Z,7.50
2017-08-29T11:56:28.323Z,7.33
2017-08-29T11:59:00.242Z,7.13
2017-08-29T12:01:31.905Z,16.27
2017-08-29T12:04:04.311Z,5.93
2017-08-29T12:06:35.713Z,9.83
2017-08-29T12:09:08.827Z,13.73
2017-08-29T12:11:40.376Z,7.27
2017-08-29T12:14:12.197Z,9.27
2017-08-29T12:16:43.987Z,6.72
2017-08-29T12:19:15.574Z,6.37
2017-08-29T12:21:47.143Z,10.52
2017-08-29T12:24:18.687Z,5.47
2017-08-29T12:26:50.303Z,5.97
2017-08-29T12:29:22.130Z,4.62
2017-08-29T12:31:53.649Z,6.65
2017-08-29T12:34:25.556Z,7.50
2017-08-29T12:36:57.367Z,5.87
2017-08-29T12:54:28.500Z,5.50
2017-08-29T14:32:22.897Z,5.85
2017-08-29T14:34:57.770Z,5.47
